sensor_id;sensor_type;location;lat;lon;timestamp;pressure;altitude;pressure_sealevel;temperature;humidity
32933;BME280;19444;50.518;10.870;2023-08-01T00:02:53;95441.72;;;14.92;100.00
32933;BME280;19444;50.518;10.870;2023-08-01T00:05:51;95449.13;;;14.75;100.00
32933;BME280;19444;50.518;10.870;2023-08-01T00:08:48;95437.47;;;14.91;100.00
32933;BME280;19444;50.518;10.870;2023-08-01T00:11:45;95432.53;;;14.96;100.00
32933;BME280;19444;50.518;10.870;2023-08-01T00:14:42;95432.41;;;14.89;100.00
32933;BME280;19444;50.518;10.870;2023-08-01T00:17:39;95426.22;;;14.89;100.00
32933;BME280;19444;50.518;10.870;2023-08-01T00:20:36;95420.97;;;14.73;100.00
32933;BME280;19444;50.518;10.870;2023-08-01T00:23:32;95424.88;;;14.75;100.00
32933;BME280;19444;50.518;10.870;2023-08-01T00:26:29;95417.31;;;14.85;100.00
32933;BME280;19444;50.518;10.870;2023-08-01T00:29:26;95409.34;;;14.92;100.00
32933;BME280;19444;50.518;10.870;2023-08-01T00:32:23;95394.88;;;14.80;100.00
32933;BME280;19444;50.518;10.870;2023-08-01T00:35:20;95388.91;;;14.91;100.00
32933;BME280;19444;50.518;10.870;2023-08-01T00:38:17;95393.28;;;14.76;100.00
32933;BME280;19444;50.518;10.870;2023-08-01T00:41:14;95380.75;;;14.87;100.00
32933;BME280;19444;50.518;10.870;2023-08-01T00:44:11;95369.00;;;14.76;100.00
32933;BME280;19444;50.518;10.870;2023-08-01T00:47:09;95364.50;;;14.84;100.00
32933;BME280;19444;50.518;10.870;2023-08-01T00:50:07;95354.25;;;14.93;100.00
32933;BME280;19444;50.518;10.870;2023-08-01T00:53:04;95344.34;;;15.00;100.00
32933;BME280;19444;50.518;10.870;2023-08-01T00:56:03;95339.34;;;15.02;100.00
32933;BME280;19444;50.518;10.870;2023-08-01T00:59:01;95333.81;;;14.92;100.00
32933;BME280;19444;50.518;10.870;2023-08-01T01:01:59;95334.94;;;14.91;100.00
32933;BME280;19444;50.518;10.870;2023-08-01T01:04:56;95318.66;;;14.84;100.00
32933;BME280;19444;50.518;10.870;2023-08-01T01:07:54;95313.16;;;14.76;100.00
32933;BME280;19444;50.518;10.870;2023-08-01T01:10:52;95312.22;;;14.92;100.00
32933;BME280;19444;50.518;10.870;2023-08-01T01:13:49;95292.09;;;14.86;100.00
32933;BME280;19444;50.518;10.870;2023-08-01T01:16:49;95304.16;;;14.95;100.00
32933;BME280;19444;50.518;10.870;2023-08-01T01:19:48;95284.00;;;14.86;100.00
32933;BME280;19444;50.518;10.870;2023-08-01T01:22:45;95276.22;;;14.80;100.00
32933;BME280;19444;50.518;10.870;2023-08-01T01:25:42;95269.63;;;14.78;100.00
32933;BME280;19444;50.518;10.870;2023-08-01T01:28:40;95253.16;;;14.83;100.00
32933;BME280;19444;50.518;10.870;2023-08-01T01:31:39;95244.69;;;14.85;100.00
32933;BME280;19444;50.518;10.870;2023-08-01T01:34:36;95251.25;;;14.87;100.00
32933;BME280;19444;50.518;10.870;2023-08-01T01:37:33;95251.22;;;14.84;100.00
32933;BME280;19444;50.518;10.870;2023-08-01T01:40:31;95240.88;;;14.89;100.00
32933;BME280;19444;50.518;10.870;2023-08-01T01:43:28;95240.88;;;14.89;100.00
32933;BME280;19444;50.518;10.870;2023-08-01T01:46:25;95232.25;;;14.76;100.00
32933;BME280;19444;50.518;10.870;2023-08-01T01:49:22;95234.69;;;14.85;100.00
32933;BME280;19444;50.518;10.870;2023-08-01T01:52:19;95242.88;;;14.92;100.00
32933;BME280;19444;50.518;10.870;2023-08-01T01:55:16;95231.75;;;14.97;100.00
32933;BME280;19444;50.518;10.870;2023-08-01T01:58:13;95214.06;;;15.00;100.00
32933;BME280;19444;50.518;10.870;2023-08-01T02:01:10;95204.00;;;15.30;100.00
32933;BME280;19444;50.518;10.870;2023-08-01T02:04:07;95201.22;;;15.23;100.00
32933;BME280;19444;50.518;10.870;2023-08-01T02:07:04;95203.41;;;15.11;100.00
32933;BME280;19444;50.518;10.870;2023-08-01T02:10:02;95206.50;;;15.13;100.00
32933;BME280;19444;50.518;10.870;2023-08-01T02:12:59;95183.47;;;15.22;100.00
32933;BME280;19444;50.518;10.870;2023-08-01T02:15:56;95169.91;;;15.15;100.00
32933;BME280;19444;50.518;10.870;2023-08-01T02:18:53;95170.66;;;15.12;100.00
32933;BME280;19444;50.518;10.870;2023-08-01T02:21:49;95167.31;;;15.26;100.00
32933;BME280;19444;50.518;10.870;2023-08-01T02:24:46;95160.75;;;15.23;100.00
32933;BME280;19444;50.518;10.870;2023-08-01T02:27:43;95153.75;;;15.19;100.00
32933;BME280;19444;50.518;10.870;2023-08-01T02:30:40;95146.56;;;15.33;100.00
32933;BME280;19444;50.518;10.870;2023-08-01T02:33:37;95139.16;;;15.23;100.00
32933;BME280;19444;50.518;10.870;2023-08-01T02:36:34;95139.16;;;15.23;100.00
32933;BME280;19444;50.518;10.870;2023-08-01T02:39:31;95134.69;;;15.38;100.00
32933;BME280;19444;50.518;10.870;2023-08-01T02:42:28;95142.13;;;15.15;100.00
32933;BME280;19444;50.518;10.870;2023-08-01T02:45:25;95137.16;;;15.17;100.00
32933;BME280;19444;50.518;10.870;2023-08-01T02:48:22;95133.72;;;15.20;100.00
32933;BME280;19444;50.518;10.870;2023-08-01T02:51:19;95127.97;;;15.25;100.00
32933;BME280;19444;50.518;10.870;2023-08-01T02:54:16;95116.38;;;15.21;100.00
32933;BME280;19444;50.518;10.870;2023-08-01T02:57:13;95117.44;;;15.09;100.00
32933;BME280;19444;50.518;10.870;2023-08-01T03:00:10;95121.31;;;15.15;100.00
32933;BME280;19444;50.518;10.870;2023-08-01T03:03:08;95100.28;;;15.31;100.00
32933;BME280;19444;50.518;10.870;2023-08-01T03:06:05;95094.41;;;15.22;100.00
32933;BME280;19444;50.518;10.870;2023-08-01T03:09:02;95093.75;;;15.36;100.00
32933;BME280;19444;50.518;10.870;2023-08-01T03:11:59;95101.38;;;15.23;100.00
32933;BME280;19444;50.518;10.870;2023-08-01T03:14:56;95101.81;;;15.29;100.00
32933;BME280;19444;50.518;10.870;2023-08-01T03:17:53;95096.66;;;15.17;100.00
32933;BME280;19444;50.518;10.870;2023-08-01T03:20:50;95094.81;;;15.24;100.00
32933;BME280;19444;50.518;10.870;2023-08-01T03:23:47;95089.78;;;15.19;100.00
32933;BME280;19444;50.518;10.870;2023-08-01T03:26:44;95103.75;;;15.28;100.00
32933;BME280;19444;50.518;10.870;2023-08-01T03:29:40;95095.63;;;15.28;100.00
32933;BME280;19444;50.518;10.870;2023-08-01T03:32:37;95100.50;;;15.16;100.00
32933;BME280;19444;50.518;10.870;2023-08-01T03:35:34;95105.50;;;15.10;100.00
32933;BME280;19444;50.518;10.870;2023-08-01T03:38:31;95103.56;;;15.11;100.00
32933;BME280;19444;50.518;10.870;2023-08-01T03:41:28;95102.00;;;15.10;100.00
32933;BME280;19444;50.518;10.870;2023-08-01T03:44:25;95081.69;;;15.19;100.00
32933;BME280;19444;50.518;10.870;2023-08-01T03:47:22;95080.84;;;15.15;100.00
32933;BME280;19444;50.518;10.870;2023-08-01T03:50:19;95072.06;;;15.25;100.00
32933;BME280;19444;50.518;10.870;2023-08-01T03:53:16;95070.81;;;15.12;100.00
32933;BME280;19444;50.518;10.870;2023-08-01T03:56:13;95064.59;;;15.08;100.00
32933;BME280;19444;50.518;10.870;2023-08-01T03:59:14;95067.03;;;15.20;100.00
32933;BME280;19444;50.518;10.870;2023-08-01T04:02:12;95068.47;;;15.11;100.00
32933;BME280;19444;50.518;10.870;2023-08-01T04:05:09;95057.00;;;15.21;100.00
32933;BME280;19444;50.518;10.870;2023-08-01T04:08:06;95065.81;;;15.14;100.00
32933;BME280;19444;50.518;10.870;2023-08-01T04:11:06;95053.94;;;15.22;100.00
32933;BME280;19444;50.518;10.870;2023-08-01T04:14:03;95046.28;;;15.28;100.00
32933;BME280;19444;50.518;10.870;2023-08-01T04:17:00;95051.22;;;15.19;100.00
32933;BME280;19444;50.518;10.870;2023-08-01T04:19:57;95055.31;;;15.05;100.00
32933;BME280;19444;50.518;10.870;2023-08-01T04:22:54;95042.84;;;15.31;100.00
32933;BME280;19444;50.518;10.870;2023-08-01T04:25:51;95047.38;;;15.20;100.00
32933;BME280;19444;50.518;10.870;2023-08-01T04:28:48;95043.59;;;15.28;100.00
32933;BME280;19444;50.518;10.870;2023-08-01T04:31:45;95036.13;;;15.14;100.00
32933;BME280;19444;50.518;10.870;2023-08-01T04:34:42;95048.16;;;15.20;100.00
32933;BME280;19444;50.518;10.870;2023-08-01T04:37:39;95042.00;;;15.23;100.00
32933;BME280;19444;50.518;10.870;2023-08-01T04:40:36;95039.31;;;15.27;100.00
32933;BME280;19444;50.518;10.870;2023-08-01T04:43:33;95040.13;;;15.31;100.00
32933;BME280;19444;50.518;10.870;2023-08-01T04:46:30;95041.19;;;15.19;100.00
32933;BME280;19444;50.518;10.870;2023-08-01T04:49:27;95038.19;;;15.28;100.00
32933;BME280;19444;50.518;10.870;2023-08-01T04:52:23;95030.91;;;15.35;100.00
32933;BME280;19444;50.518;10.870;2023-08-01T04:55:20;95045.50;;;15.27;100.00
32933;BME280;19444;50.518;10.870;2023-08-01T04:58:17;95038.19;;;15.28;100.00
32933;BME280;19444;50.518;10.870;2023-08-01T05:01:14;95029.19;;;15.17;100.00
32933;BME280;19444;50.518;10.870;2023-08-01T05:04:11;95021.56;;;15.26;100.00
32933;BME280;19444;50.518;10.870;2023-08-01T05:07:08;95018.63;;;15.42;100.00
32933;BME280;19444;50.518;10.870;2023-08-01T05:10:05;95022.13;;;15.46;100.00
32933;BME280;19444;50.518;10.870;2023-08-01T05:13:03;95022.41;;;15.33;100.00
32933;BME280;19444;50.518;10.870;2023-08-01T05:15:59;95025.94;;;15.38;100.00
32933;BME280;19444;50.518;10.870;2023-08-01T05:18:56;95029.81;;;15.44;100.00
32933;BME280;19444;50.518;10.870;2023-08-01T05:21:53;95017.84;;;15.41;100.00
32933;BME280;19444;50.518;10.870;2023-08-01T05:24:51;95026.19;;;15.25;100.00
32933;BME280;19444;50.518;10.870;2023-08-01T05:27:48;95036.56;;;15.20;100.00
32933;BME280;19444;50.518;10.870;2023-08-01T05:30:45;95011.00;;;15.06;100.00
32933;BME280;19444;50.518;10.870;2023-08-01T05:33:42;95017.53;;;15.05;100.00
32933;BME280;19444;50.518;10.870;2023-08-01T05:36:39;95014.63;;;15.25;100.00
32933;BME280;19444;50.518;10.870;2023-08-01T05:39:37;94986.94;;;15.31;100.00
32933;BME280;19444;50.518;10.870;2023-08-01T05:42:33;94993.41;;;15.23;100.00
32933;BME280;19444;50.518;10.870;2023-08-01T05:45:30;94991.94;;;15.33;100.00
32933;BME280;19444;50.518;10.870;2023-08-01T05:48:28;94994.31;;;15.38;100.00
32933;BME280;19444;50.518;10.870;2023-08-01T05:51:25;95000.75;;;15.26;100.00
32933;BME280;19444;50.518;10.870;2023-08-01T05:54:22;94995.72;;;15.25;100.00
32933;BME280;19444;50.518;10.870;2023-08-01T05:57:19;95015.41;;;15.25;100.00
32933;BME280;19444;50.518;10.870;2023-08-01T06:00:16;95010.69;;;15.15;100.00
32933;BME280;19444;50.518;10.870;2023-08-01T06:03:13;95026.56;;;15.20;100.00
32933;BME280;19444;50.518;10.870;2023-08-01T06:06:10;95026.88;;;15.15;100.00
32933;BME280;19444;50.518;10.870;2023-08-01T06:09:07;95018.16;;;15.29;100.00
32933;BME280;19444;50.518;10.870;2023-08-01T06:12:05;95022.31;;;15.19;100.00
32933;BME280;19444;50.518;10.870;2023-08-01T06:15:03;95019.16;;;15.14;100.00
32933;BME280;19444;50.518;10.870;2023-08-01T06:18:01;95009.97;;;15.22;100.00
32933;BME280;19444;50.518;10.870;2023-08-01T06:20:59;95002.22;;;15.17;100.00
32933;BME280;19444;50.518;10.870;2023-08-01T06:23:56;95012.97;;;15.10;100.00
32933;BME280;19444;50.518;10.870;2023-08-01T06:26:53;95030.72;;;15.11;100.00
32933;BME280;19444;50.518;10.870;2023-08-01T06:29:50;95032.97;;;15.05;100.00
32933;BME280;19444;50.518;10.870;2023-08-01T06:32:47;95035.81;;;15.19;100.00
32933;BME280;19444;50.518;10.870;2023-08-01T06:35:44;95045.06;;;15.22;100.00
32933;BME280;19444;50.518;10.870;2023-08-01T06:38:41;95051.22;;;15.19;100.00
32933;BME280;19444;50.518;10.870;2023-08-01T06:41:37;95055.03;;;15.18;100.00
32933;BME280;19444;50.518;10.870;2023-08-01T06:44:34;95062.81;;;15.23;100.00
32933;BME280;19444;50.518;10.870;2023-08-01T06:47:31;95063.19;;;15.21;100.00
32933;BME280;19444;50.518;10.870;2023-08-01T06:50:28;95054.00;;;15.29;100.00
32933;BME280;19444;50.518;10.870;2023-08-01T06:53:26;95052.78;;;15.23;100.00
32933;BME280;19444;50.518;10.870;2023-08-01T06:56:23;95044.41;;;15.35;100.00
32933;BME280;19444;50.518;10.870;2023-08-01T06:59:20;95022.41;;;15.30;100.00
32933;BME280;19444;50.518;10.870;2023-08-01T07:02:17;94994.19;;;15.24;100.00
32933;BME280;19444;50.518;10.870;2023-08-01T07:05:14;94988.41;;;15.25;100.00
32933;BME280;19444;50.518;10.870;2023-08-01T07:08:11;94965.38;;;15.39;100.00
32933;BME280;19444;50.518;10.870;2023-08-01T07:11:08;94956.78;;;15.22;100.00
32933;BME280;19444;50.518;10.870;2023-08-01T07:14:05;94974.19;;;15.28;100.00
32933;BME280;19444;50.518;10.870;2023-08-01T07:17:02;94997.31;;;15.29;100.00
32933;BME280;19444;50.518;10.870;2023-08-01T07:19:59;95016.16;;;15.22;100.00
32933;BME280;19444;50.518;10.870;2023-08-01T07:22:56;95046.59;;;15.19;100.00
32933;BME280;19444;50.518;10.870;2023-08-01T07:25:53;95061.31;;;15.29;100.00
32933;BME280;19444;50.518;10.870;2023-08-01T07:28:50;95078.22;;;15.22;100.00
32933;BME280;19444;50.518;10.870;2023-08-01T07:31:47;95078.94;;;15.16;100.00
32933;BME280;19444;50.518;10.870;2023-08-01T07:34:44;95063.41;;;15.05;100.00
32933;BME280;19444;50.518;10.870;2023-08-01T07:37:41;95006.91;;;15.23;100.00
32933;BME280;19444;50.518;10.870;2023-08-01T07:40:38;94937.38;;;15.02;100.00
32933;BME280;19444;50.518;10.870;2023-08-01T07:43:34;94943.47;;;14.96;100.00
32933;BME280;19444;50.518;10.870;2023-08-01T07:46:32;94914.38;;;15.19;100.00
32933;BME280;19444;50.518;10.870;2023-08-01T07:49:29;94928.91;;;15.04;100.00
32933;BME280;19444;50.518;10.870;2023-08-01T07:52:26;94972.97;;;15.22;100.00
32933;BME280;19444;50.518;10.870;2023-08-01T07:55:23;94997.50;;;15.06;100.00
32933;BME280;19444;50.518;10.870;2023-08-01T07:58:20;95003.41;;;15.19;100.00
32933;BME280;19444;50.518;10.870;2023-08-01T08:01:17;94991.56;;;15.31;100.00
32933;BME280;19444;50.518;10.870;2023-08-01T08:04:15;94993.84;;;15.29;100.00
32933;BME280;19444;50.518;10.870;2023-08-01T08:07:12;95003.28;;;15.05;100.00
32933;BME280;19444;50.518;10.870;2023-08-01T08:10:09;94996.34;;;15.04;100.00
32933;BME280;19444;50.518;10.870;2023-08-01T08:13:06;94991.03;;;15.15;100.00
32933;BME280;19444;50.518;10.870;2023-08-01T08:16:03;94981.31;;;15.03;100.00
32933;BME280;19444;50.518;10.870;2023-08-01T08:19:01;94971.03;;;15.19;100.00
32933;BME280;19444;50.518;10.870;2023-08-01T08:21:58;94997.09;;;15.01;100.00
32933;BME280;19444;50.518;10.870;2023-08-01T08:24:55;94975.09;;;14.99;100.00
32933;BME280;19444;50.518;10.870;2023-08-01T08:27:52;94982.06;;;15.03;100.00
32933;BME280;19444;50.518;10.870;2023-08-01T08:30:49;94983.56;;;14.97;100.00
32933;BME280;19444;50.518;10.870;2023-08-01T08:33:46;94975.88;;;14.99;100.00
32933;BME280;19444;50.518;10.870;2023-08-01T08:36:42;94991.28;;;14.99;100.00
32933;BME280;19444;50.518;10.870;2023-08-01T08:39:39;94987.63;;;14.80;100.00
32933;BME280;19444;50.518;10.870;2023-08-01T08:42:36;94987.75;;;14.91;100.00
32933;BME280;19444;50.518;10.870;2023-08-01T08:45:35;94993.78;;;15.18;100.00
32933;BME280;19444;50.518;10.870;2023-08-01T08:48:32;94994.44;;;15.08;100.00
32933;BME280;19444;50.518;10.870;2023-08-01T08:51:31;94994.44;;;15.08;100.00
32933;BME280;19444;50.518;10.870;2023-08-01T08:54:28;94995.47;;;14.93;100.00
32933;BME280;19444;50.518;10.870;2023-08-01T08:57:27;94990.84;;;14.93;100.00
32933;BME280;19444;50.518;10.870;2023-08-01T09:00:24;95017.53;;;15.02;100.00
32933;BME280;19444;50.518;10.870;2023-08-01T09:03:21;95027.09;;;14.96;100.00
32933;BME280;19444;50.518;10.870;2023-08-01T09:06:32;95020.16;;;14.95;100.00
32933;BME280;19444;50.518;10.870;2023-08-01T09:09:31;95020.06;;;15.28;100.00
32933;BME280;19444;50.518;10.870;2023-08-01T09:12:34;95018.97;;;15.36;100.00
32933;BME280;19444;50.518;10.870;2023-08-01T09:15:31;95013.59;;;15.40;100.00
32933;BME280;19444;50.518;10.870;2023-08-01T09:18:29;95017.91;;;15.52;100.00
32933;BME280;19444;50.518;10.870;2023-08-01T09:21:26;95017.81;;;15.38;100.00
32933;BME280;19444;50.518;10.870;2023-08-01T09:24:23;95023.25;;;15.41;100.00
32933;BME280;19444;50.518;10.870;2023-08-01T09:27:21;95022.00;;;15.31;100.00
32933;BME280;19444;50.518;10.870;2023-08-01T09:30:19;95028.00;;;15.11;100.00
32933;BME280;19444;50.518;10.870;2023-08-01T09:33:17;95023.19;;;15.34;100.00
32933;BME280;19444;50.518;10.870;2023-08-01T09:36:21;95018.53;;;15.27;100.00
32933;BME280;19444;50.518;10.870;2023-08-01T09:39:20;95031.19;;;15.20;100.00
32933;BME280;19444;50.518;10.870;2023-08-01T09:42:18;95037.13;;;15.40;100.00
32933;BME280;19444;50.518;10.870;2023-08-01T09:45:16;95038.28;;;15.39;100.00
32933;BME280;19444;50.518;10.870;2023-08-01T09:48:28;95023.81;;;15.61;100.00
32933;BME280;19444;50.518;10.870;2023-08-01T09:51:25;95021.56;;;15.26;100.00
32933;BME280;19444;50.518;10.870;2023-08-01T09:54:23;95029.34;;;15.34;100.00
32933;BME280;19444;50.518;10.870;2023-08-01T09:57:22;95018.03;;;15.62;100.00
32933;BME280;19444;50.518;10.870;2023-08-01T10:00:19;95029.09;;;15.47;100.00
32933;BME280;19444;50.518;10.870;2023-08-01T10:03:16;95036.56;;;15.20;100.00
32933;BME280;19444;50.518;10.870;2023-08-01T10:06:28;95037.53;;;15.45;100.00
32933;BME280;19444;50.518;10.870;2023-08-01T10:09:27;95029.66;;;15.70;100.00
32933;BME280;19444;50.518;10.870;2023-08-01T10:12:27;95045.31;;;16.05;100.00
32933;BME280;19444;50.518;10.870;2023-08-01T10:15:25;95046.13;;;16.09;100.00
32933;BME280;19444;50.518;10.870;2023-08-01T10:18:25;95041.38;;;15.92;100.00
32933;BME280;19444;50.518;10.870;2023-08-01T10:21:23;95045.25;;;15.98;100.00
32933;BME280;19444;50.518;10.870;2023-08-01T10:24:20;95042.75;;;15.68;100.00
32933;BME280;19444;50.518;10.870;2023-08-01T10:27:20;95039.28;;;15.23;100.00
32933;BME280;19444;50.518;10.870;2023-08-01T10:30:26;95052.97;;;15.92;100.00
32933;BME280;19444;50.518;10.870;2023-08-01T10:33:33;95055.06;;;15.62;100.00
32933;BME280;19444;50.518;10.870;2023-08-01T10:36:31;95049.94;;;16.08;100.00
32933;BME280;19444;50.518;10.870;2023-08-01T10:39:29;95055.69;;;16.00;100.00
32933;BME280;19444;50.518;10.870;2023-08-01T10:42:38;95057.88;;;15.76;100.00
32933;BME280;19444;50.518;10.870;2023-08-01T10:45:35;95052.63;;;16.05;100.00
32933;BME280;19444;50.518;10.870;2023-08-01T10:48:32;95051.56;;;16.24;100.00
32933;BME280;19444;50.518;10.870;2023-08-01T10:51:35;95056.44;;;16.73;100.00
32933;BME280;19444;50.518;10.870;2023-08-01T10:54:32;95058.41;;;16.87;100.00
32933;BME280;19444;50.518;10.870;2023-08-01T10:57:34;95056.56;;;17.23;100.00
32933;BME280;19444;50.518;10.870;2023-08-01T11:00:31;95053.03;;;17.04;100.00
32933;BME280;19444;50.518;10.870;2023-08-01T11:03:39;95036.81;;;17.90;100.00
32933;BME280;19444;50.518;10.870;2023-08-01T11:06:44;95045.28;;;18.10;100.00
32933;BME280;19444;50.518;10.870;2023-08-01T11:09:41;95049.59;;;17.97;100.00
32933;BME280;19444;50.518;10.870;2023-08-01T11:12:43;95056.56;;;17.69;100.00
32933;BME280;19444;50.518;10.870;2023-08-01T11:15:40;95053.84;;;17.98;100.00
32933;BME280;19444;50.518;10.870;2023-08-01T11:18:44;95054.25;;;18.03;100.00
32933;BME280;19444;50.518;10.870;2023-08-01T11:21:42;95062.41;;;17.75;100.00
32933;BME280;19444;50.518;10.870;2023-08-01T11:24:39;95061.59;;;17.31;100.00
32933;BME280;19444;50.518;10.870;2023-08-01T11:27:36;95048.81;;;18.03;100.00
32933;BME280;19444;50.518;10.870;2023-08-01T11:30:34;95053.06;;;17.26;100.00
32933;BME280;19444;50.518;10.870;2023-08-01T11:33:31;95054.25;;;17.57;100.00
32933;BME280;19444;50.518;10.870;2023-08-01T11:36:29;95047.28;;;17.95;100.00
32933;BME280;19444;50.518;10.870;2023-08-01T11:39:26;95040.53;;;18.57;100.00
32933;BME280;19444;50.518;10.870;2023-08-01T11:42:23;95029.53;;;19.48;100.00
32933;BME280;19444;50.518;10.870;2023-08-01T11:45:20;95030.94;;;20.08;100.00
32933;BME280;19444;50.518;10.870;2023-08-01T11:48:17;95029.00;;;19.64;100.00
32933;BME280;19444;50.518;10.870;2023-08-01T11:51:16;95027.56;;;19.48;100.00
32933;BME280;19444;50.518;10.870;2023-08-01T11:54:14;95053.03;;;18.29;100.00
32933;BME280;19444;50.518;10.870;2023-08-01T11:57:11;95046.91;;;17.82;100.00
32933;BME280;19444;50.518;10.870;2023-08-01T12:00:08;95057.72;;;17.64;100.00
32933;BME280;19444;50.518;10.870;2023-08-01T12:03:08;95042.63;;;17.92;100.00
32933;BME280;19444;50.518;10.870;2023-08-01T12:06:10;95030.75;;;18.77;100.00
32933;BME280;19444;50.518;10.870;2023-08-01T12:09:13;95022.19;;;19.41;100.00
32933;BME280;19444;50.518;10.870;2023-08-01T12:12:10;95027.78;;;19.16;100.00
32933;BME280;19444;50.518;10.870;2023-08-01T12:15:07;95022.78;;;19.67;100.00
32933;BME280;19444;50.518;10.870;2023-08-01T12:18:04;95020.56;;;19.96;100.00
32933;BME280;19444;50.518;10.870;2023-08-01T12:21:01;95023.16;;;19.65;100.00
32933;BME280;19444;50.518;10.870;2023-08-01T12:23:59;95027.63;;;18.79;100.00
32933;BME280;19444;50.518;10.870;2023-08-01T12:26:57;95032.34;;;19.33;100.00
32933;BME280;19444;50.518;10.870;2023-08-01T12:29:54;95033.97;;;18.43;100.00
32933;BME280;19444;50.518;10.870;2023-08-01T12:32:51;95034.81;;;18.23;100.00
32933;BME280;19444;50.518;10.870;2023-08-01T12:35:48;95036.03;;;18.11;100.00
32933;BME280;19444;50.518;10.870;2023-08-01T12:38:45;95040.72;;;17.75;100.00
32933;BME280;19444;50.518;10.870;2023-08-01T12:41:42;95029.75;;;18.28;100.00
32933;BME280;19444;50.518;10.870;2023-08-01T12:44:39;95051.13;;;18.08;100.00
32933;BME280;19444;50.518;10.870;2023-08-01T12:47:36;95038.72;;;18.14;100.00
32933;BME280;19444;50.518;10.870;2023-08-01T12:50:33;95065.44;;;18.12;100.00
32933;BME280;19444;50.518;10.870;2023-08-01T12:53:30;95064.28;;;18.06;100.00
32933;BME280;19444;50.518;10.870;2023-08-01T12:56:27;95061.78;;;18.76;100.00
32933;BME280;19444;50.518;10.870;2023-08-01T12:59:24;95057.88;;;18.77;100.00
32933;BME280;19444;50.518;10.870;2023-08-01T13:02:21;95058.03;;;19.22;100.00
32933;BME280;19444;50.518;10.870;2023-08-01T13:05:18;95045.66;;;19.69;100.00
32933;BME280;19444;50.518;10.870;2023-08-01T13:08:15;95055.31;;;19.74;100.00
32933;BME280;19444;50.518;10.870;2023-08-01T13:11:13;95041.75;;;19.18;100.00
32933;BME280;19444;50.518;10.870;2023-08-01T13:14:10;95050.81;;;19.56;100.00
32933;BME280;19444;50.518;10.870;2023-08-01T13:17:07;95046.59;;;19.45;100.00
32933;BME280;19444;50.518;10.870;2023-08-01T13:20:05;95047.00;;;20.29;100.00
32933;BME280;19444;50.518;10.870;2023-08-01T13:23:03;95053.69;;;20.25;100.00
32933;BME280;19444;50.518;10.870;2023-08-01T13:26:00;95051.16;;;19.62;100.00
32933;BME280;19444;50.518;10.870;2023-08-01T13:28:59;95051.97;;;20.00;100.00
32933;BME280;19444;50.518;10.870;2023-08-01T13:31:56;95057.38;;;20.41;100.00
32933;BME280;19444;50.518;10.870;2023-08-01T13:34:53;95070.44;;;19.78;100.00
32933;BME280;19444;50.518;10.870;2023-08-01T13:37:50;95065.69;;;19.89;100.00
32933;BME280;19444;50.518;10.870;2023-08-01T13:40:47;95071.81;;;19.97;100.00
32933;BME280;19444;50.518;10.870;2023-08-01T13:43:44;95067.56;;;19.96;100.00
32933;BME280;19444;50.518;10.870;2023-08-01T13:46:41;95073.72;;;20.41;100.00
32933;BME280;19444;50.518;10.870;2023-08-01T13:49:38;95060.03;;;20.11;100.00
32933;BME280;19444;50.518;10.870;2023-08-01T13:52:37;95074.44;;;19.67;100.00
32933;BME280;19444;50.518;10.870;2023-08-01T13:55:34;95084.38;;;19.25;100.00
32933;BME280;19444;50.518;10.870;2023-08-01T13:58:31;95076.53;;;19.38;100.00
32933;BME280;19444;50.518;10.870;2023-08-01T14:01:28;95094.00;;;19.40;100.00
32933;BME280;19444;50.518;10.870;2023-08-01T14:04:25;95088.41;;;20.10;100.00
32933;BME280;19444;50.518;10.870;2023-08-01T14:07:22;95086.28;;;19.31;100.00
32933;BME280;19444;50.518;10.870;2023-08-01T14:10:19;95098.25;;;19.41;100.00
32933;BME280;19444;50.518;10.870;2023-08-01T14:13:16;95081.19;;;19.41;100.00
32933;BME280;19444;50.518;10.870;2023-08-01T14:16:13;95094.22;;;19.01;100.00
32933;BME280;19444;50.518;10.870;2023-08-01T14:19:11;95100.06;;;18.96;100.00
32933;BME280;19444;50.518;10.870;2023-08-01T14:22:07;95100.91;;;18.86;100.00
32933;BME280;19444;50.518;10.870;2023-08-01T14:25:06;95112.78;;;19.10;100.00
32933;BME280;19444;50.518;10.870;2023-08-01T14:28:04;95123.03;;;18.70;100.00
32933;BME280;19444;50.518;10.870;2023-08-01T14:31:02;95131.91;;;18.81;100.00
32933;BME280;19444;50.518;10.870;2023-08-01T14:33:59;95129.25;;;18.60;100.00
32933;BME280;19444;50.518;10.870;2023-08-01T14:36:56;95135.47;;;18.53;100.00
32933;BME280;19444;50.518;10.870;2023-08-01T14:39:53;95125.31;;;18.93;100.00
32933;BME280;19444;50.518;10.870;2023-08-01T14:42:50;95132.56;;;19.14;100.00
32933;BME280;19444;50.518;10.870;2023-08-01T14:45:47;95159.06;;;18.74;100.00
32933;BME280;19444;50.518;10.870;2023-08-01T14:48:45;95155.22;;;18.61;100.00
32933;BME280;19444;50.518;10.870;2023-08-01T14:51:42;95150.63;;;18.47;100.00
32933;BME280;19444;50.518;10.870;2023-08-01T14:54:39;95163.78;;;18.48;100.00
32933;BME280;19444;50.518;10.870;2023-08-01T14:57:37;95168.00;;;17.50;100.00
32933;BME280;19444;50.518;10.870;2023-08-01T15:00:36;95165.53;;;16.98;100.00
32933;BME280;19444;50.518;10.870;2023-08-01T15:03:33;95173.03;;;17.55;100.00
32933;BME280;19444;50.518;10.870;2023-08-01T15:06:30;95169.59;;;17.72;100.00
32933;BME280;19444;50.518;10.870;2023-08-01T15:09:27;95173.50;;;18.00;100.00
32933;BME280;19444;50.518;10.870;2023-08-01T15:12:24;95172.34;;;18.08;100.00
32933;BME280;19444;50.518;10.870;2023-08-01T15:15:23;95166.53;;;17.95;100.00
32933;BME280;19444;50.518;10.870;2023-08-01T15:18:19;95174.22;;;18.57;100.00